Time;durP1;ratioP1;P1;durP2;ratioP2;P2;SDS_P1;SDS_P2;PMS_P1;PMS_P2;Temp;Humidity;BMP_temperature;BMP_pressure;BME280_temperature;BME280_humidity;BME280_pressure;Samples;Min_cycle;Max_cycle;Signal;HPM_P1;HPM_P2
2022/09/22 00:00:16;;;;;;;5.43;4.30;;;13.40;99.30;;;;;;5057629;28;20444;-82
2022/09/22 00:02:43;;;;;;;4.80;3.80;;;13.30;99.60;;;;;;5061217;28;20468;-80
2022/09/22 00:05:11;;;;;;;4.20;3.20;;;13.30;99.90;;;;;;5054728;28;20456;-80
2022/09/22 00:07:38;;;;;;;3.60;3.17;;;13.30;99.60;;;;;;5062304;28;20456;-83
2022/09/22 00:10:06;;;;;;;3.40;3.03;;;13.20;99.50;;;;;;5057056;28;20459;-82
2022/09/22 00:12:34;;;;;;;5.07;3.10;;;13.30;99.80;;;;;;5057916;28;20476;-84
2022/09/22 00:15:01;;;;;;;3.67;3.10;;;13.30;99.80;;;;;;5057149;28;20444;-81
2022/09/22 00:17:30;;;;;;;3.50;2.90;;;13.20;99.80;;;;;;5058855;28;20460;-82
2022/09/22 00:19:59;;;;;;;4.77;3.03;;;13.30;99.90;;;;;;5073922;28;20471;-82
2022/09/22 00:22:28;;;;;;;4.87;3.20;;;13.30;99.80;;;;;;5055704;28;20465;-83
2022/09/22 00:24:56;;;;;;;4.80;3.30;;;13.30;99.80;;;;;;5072117;28;20471;-82
2022/09/22 00:27:24;;;;;;;6.43;3.47;;;13.30;99.80;;;;;;5054719;28;20472;-82
2022/09/22 00:29:51;;;;;;;5.60;3.30;;;13.40;99.80;;;;;;5058416;28;20444;-82
2022/09/22 00:32:18;;;;;;;3.57;3.17;;;13.50;99.40;;;;;;5054779;28;20483;-80
2022/09/22 00:34:45;;;;;;;3.20;2.90;;;13.60;98.90;;;;;;5055116;28;20464;-81
2022/09/22 00:37:12;;;;;;;3.40;3.10;;;13.40;98.90;;;;;;5052178;28;20449;-82
2022/09/22 00:39:39;;;;;;;3.50;3.20;;;13.30;99.20;;;;;;5048768;28;20460;-82
2022/09/22 00:42:11;;;;;;;5.40;3.53;;;13.10;99.50;;;;;;5055304;28;20643;-81
2022/09/22 00:44:42;;;;;;;3.67;3.37;;;13.00;99.90;;;;;;5057914;28;20467;-81
2022/09/22 00:47:27;;;;;;;3.47;2.73;;;12.90;99.90;;;;;;5053622;28;20477;-83
2022/09/22 00:50:09;;;;;;;4.73;3.40;;;12.80;99.90;;;;;;5059460;28;20432;-83
2022/09/22 00:52:52;;;;;;;4.90;3.40;;;12.80;99.90;;;;;;5066322;28;20488;-79
2022/09/22 00:55:27;;;;;;;6.43;3.53;;;12.80;99.90;;;;;;5077338;28;20444;-82
2022/09/22 00:57:55;;;;;;;3.80;2.93;;;12.90;99.90;;;;;;5077148;28;20436;-82
2022/09/22 01:00:22;;;;;;;3.83;3.50;;;12.90;99.90;;;;;;5088943;28;20459;-84
2022/09/22 01:02:55;;;;;;;3.27;2.97;;;12.90;99.90;;;;;;5066299;28;20456;-82
2022/09/22 01:05:23;;;;;;;4.20;3.00;;;12.90;99.90;;;;;;5051330;28;20444;-83
2022/09/22 01:07:51;;;;;;;3.00;2.77;;;12.80;99.70;;;;;;5060234;28;20464;-82
2022/09/22 01:10:19;;;;;;;3.53;3.23;;;12.80;99.90;;;;;;5058598;28;20448;-82
2022/09/22 01:13:17;;;;;;;4.40;3.00;;;12.70;99.90;;;;;;5057288;28;20476;-82
2022/09/22 01:16:04;;;;;;;3.83;2.97;;;12.70;99.90;;;;;;5051226;28;20479;-82
2022/09/22 01:19:07;;;;;;;3.20;2.90;;;12.80;99.90;;;;;;5058998;28;20478;-80
2022/09/22 01:21:37;;;;;;;4.80;3.50;;;12.70;99.90;;;;;;5053246;28;20533;-81
2022/09/22 01:24:15;;;;;;;5.57;3.67;;;12.70;99.80;;;;;;5053961;28;20499;-82
2022/09/22 01:26:59;;;;;;;4.00;2.87;;;12.60;99.90;;;;;;5068437;28;20504;-83
2022/09/22 01:30:08;;;;;;;3.30;3.00;;;12.40;99.90;;;;;;5061453;28;20482;-82
2022/09/22 01:32:44;;;;;;;3.60;2.90;;;12.50;99.90;;;;;;5071710;28;20472;-82
2022/09/22 01:35:41;;;;;;;4.60;3.47;;;12.30;99.90;;;;;;5058465;28;20685;-82
2022/09/22 01:38:17;;;;;;;4.83;3.37;;;12.30;99.90;;;;;;5058146;28;20467;-83
2022/09/22 01:40:59;;;;;;;4.53;3.50;;;12.40;99.90;;;;;;5058318;28;20452;-82
2022/09/22 01:43:52;;;;;;;4.07;2.83;;;12.30;99.90;;;;;;5061644;28;20447;-82
2022/09/22 01:46:39;;;;;;;2.83;2.63;;;12.40;99.90;;;;;;5054374;28;20429;-82
2022/09/22 01:49:09;;;;;;;3.30;3.00;;;12.30;99.90;;;;;;5054195;28;20481;-81
2022/09/22 01:51:49;;;;;;;4.50;3.33;;;12.30;99.90;;;;;;5069083;28;20486;-82
2022/09/22 01:54:26;;;;;;;4.57;3.10;;;12.30;99.90;;;;;;5071339;28;20452;-79
2022/09/22 01:57:18;;;;;;;5.80;3.00;;;12.20;99.90;;;;;;5057666;28;20840;-82
2022/09/22 01:59:51;;;;;;;3.83;2.70;;;12.10;99.90;;;;;;5060105;28;20448;-82
2022/09/22 02:02:29;;;;;;;3.77;3.40;;;11.90;99.90;;;;;;5053570;28;20468;-81
2022/09/22 02:05:01;;;;;;;4.17;3.00;;;11.90;99.90;;;;;;5068657;28;20451;-80
2022/09/22 02:07:39;;;;;;;3.83;2.90;;;11.90;99.90;;;;;;5066854;28;20465;-79
2022/09/22 02:10:12;;;;;;;4.60;3.10;;;11.90;99.90;;;;;;5070619;28;20455;-80
2022/09/22 02:12:39;;;;;;;5.57;3.13;;;11.90;99.90;;;;;;5074322;28;20464;-81
2022/09/22 02:15:58;;;;;;;7.73;3.23;;;11.90;99.90;;;;;;5075303;28;20461;-80
2022/09/22 02:18:09;;;;;;;6.70;3.47;;;11.90;99.90;;;;;;5070744;28;20453;-80
2022/09/22 02:20:39;;;;;;;4.60;3.50;;;11.90;99.90;;;;;;5069881;28;20440;-80
2022/09/22 02:23:06;;;;;;;3.17;2.90;;;11.90;99.90;;;;;;5063532;28;20436;-82
2022/09/22 02:25:35;;;;;;;3.33;2.90;;;11.70;99.90;;;;;;5059162;28;20491;-86
2022/09/22 02:28:01;;;;;;;5.77;4.20;;;11.70;99.90;;;;;;5060489;28;20480;-84
2022/09/22 02:30:28;;;;;;;5.30;3.47;;;11.60;99.90;;;;;;5059334;28;20445;-83
2022/09/22 02:32:56;;;;;;;4.03;3.53;;;11.50;99.90;;;;;;5054780;28;20480;-82
2022/09/22 02:35:25;;;;;;;5.53;3.50;;;11.50;99.90;;;;;;5071405;28;20452;-82
2022/09/22 02:38:19;;;;;;;4.60;3.40;;;11.40;99.90;;;;;;5048330;28;20995;-83
2022/09/22 02:41:07;;;;;;;3.87;3.20;;;11.30;99.90;;;;;;5054914;28;20433;-81
2022/09/22 02:43:40;;;;;;;3.20;2.90;;;11.30;99.90;;;;;;5051872;28;20451;-81
2022/09/22 02:46:24;;;;;;;3.70;3.30;;;11.10;99.90;;;;;;5053592;28;20444;-80
2022/09/22 02:48:57;;;;;;;5.10;3.30;;;11.30;99.90;;;;;;5063233;28;21009;-82
2022/09/22 02:51:24;;;;;;;4.63;3.20;;;11.30;99.90;;;;;;5056183;28;20465;-82
2022/09/22 02:53:52;;;;;;;3.53;2.80;;;11.40;99.90;;;;;;5056870;28;20453;-79
2022/09/22 02:56:18;;;;;;;6.70;3.57;;;11.50;99.90;;;;;;5060081;28;20458;-80
2022/09/22 02:58:45;;;;;;;4.80;3.77;;;11.40;99.90;;;;;;5059448;28;20473;-82
2022/09/22 03:01:12;;;;;;;3.57;3.13;;;11.30;99.90;;;;;;5052514;28;21063;-82
2022/09/22 03:03:39;;;;;;;5.60;3.03;;;11.50;99.90;;;;;;5057655;28;20455;-83
2022/09/22 03:06:05;;;;;;;5.30;2.90;;;11.50;99.90;;;;;;5061494;28;20455;-80
2022/09/22 03:08:32;;;;;;;4.57;3.40;;;11.50;99.90;;;;;;5076153;28;20476;-82
2022/09/22 03:10:59;;;;;;;3.40;2.77;;;11.40;99.90;;;;;;5074190;28;20498;-83
2022/09/22 03:13:26;;;;;;;4.70;3.40;;;11.40;99.90;;;;;;5055239;28;20457;-81
2022/09/22 03:15:52;;;;;;;7.03;3.50;;;11.20;99.90;;;;;;5056479;28;20440;-83
2022/09/22 03:18:19;;;;;;;3.30;3.00;;;11.20;99.90;;;;;;5053783;28;20461;-83
2022/09/22 03:20:46;;;;;;;4.23;2.83;;;11.10;99.90;;;;;;5055918;28;20445;-83
2022/09/22 03:23:13;;;;;;;3.63;3.33;;;10.90;99.90;;;;;;5056667;28;20467;-83
2022/09/22 03:25:40;;;;;;;5.50;3.00;;;10.90;99.90;;;;;;5074210;28;20544;-82
2022/09/22 03:28:06;;;;;;;3.37;3.03;;;11.00;99.90;;;;;;5055300;28;20490;-83
2022/09/22 03:30:36;;;;;;;3.47;2.90;;;10.90;99.90;;;;;;5073469;28;20441;-82
2022/09/22 03:33:03;;;;;;;7.40;3.53;;;11.00;99.90;;;;;;5056289;28;20532;-81
2022/09/22 03:35:30;;;;;;;3.07;2.77;;;11.00;99.90;;;;;;5053435;28;20460;-82
2022/09/22 03:37:56;;;;;;;4.67;2.93;;;10.90;99.90;;;;;;5060023;28;20522;-80
2022/09/22 03:40:23;;;;;;;4.00;3.23;;;11.00;99.90;;;;;;5077669;28;20467;-80
2022/09/22 03:42:50;;;;;;;5.23;3.17;;;11.00;99.90;;;;;;5057928;28;20970;-80
2022/09/22 03:45:17;;;;;;;3.00;2.70;;;11.10;99.90;;;;;;5059472;28;20464;-82
2022/09/22 03:47:45;;;;;;;3.30;3.00;;;11.00;99.90;;;;;;5062942;28;20530;-82
2022/09/22 03:50:12;;;;;;;4.17;3.77;;;11.00;99.90;;;;;;5072438;28;20445;-82
2022/09/22 03:52:41;;;;;;;3.77;3.37;;;10.90;99.90;;;;;;5073012;28;20464;-83
2022/09/22 03:55:09;;;;;;;2.70;2.50;;;10.90;99.90;;;;;;5054895;28;20483;-83
2022/09/22 03:57:36;;;;;;;3.40;3.10;;;10.90;99.90;;;;;;5055333;28;20460;-82
2022/09/22 04:00:04;;;;;;;5.47;3.60;;;10.90;99.90;;;;;;5055726;28;20474;-82
2022/09/22 04:02:31;;;;;;;4.83;3.40;;;10.90;99.90;;;;;;5048169;28;20530;-82
2022/09/22 04:04:58;;;;;;;3.90;3.30;;;11.00;99.90;;;;;;5055307;28;20491;-82
2022/09/22 04:07:24;;;;;;;4.53;3.33;;;10.90;99.90;;;;;;5053638;28;20607;-83
2022/09/22 04:09:51;;;;;;;4.77;3.20;;;11.10;99.90;;;;;;5055359;28;20518;-84
2022/09/22 04:12:18;;;;;;;4.50;3.50;;;11.10;99.90;;;;;;5053414;28;20463;-82
2022/09/22 04:14:45;;;;;;;3.80;3.03;;;11.00;99.90;;;;;;5076824;28;20456;-82
2022/09/22 04:17:12;;;;;;;6.43;3.37;;;10.90;99.90;;;;;;5084817;28;20479;-84
2022/09/22 04:19:46;;;;;;;4.80;3.67;;;10.90;99.90;;;;;;5059182;28;20460;-83
2022/09/22 04:22:15;;;;;;;4.73;3.80;;;10.90;99.90;;;;;;5051444;28;20484;-83
2022/09/22 04:24:47;;;;;;;5.60;3.70;;;10.80;99.90;;;;;;5060676;28;20471;-84
2022/09/22 04:27:14;;;;;;;5.43;3.37;;;11.00;99.90;;;;;;5060241;28;20511;-84
2022/09/22 04:29:45;;;;;;;9.43;5.37;;;11.00;99.90;;;;;;5072930;28;20502;-80
2022/09/22 04:32:13;;;;;;;5.67;3.50;;;10.90;99.90;;;;;;5060320;28;20522;-83
2022/09/22 04:34:40;;;;;;;7.00;4.40;;;10.70;99.90;;;;;;5061757;28;20445;-83
2022/09/22 04:37:06;;;;;;;5.30;3.90;;;10.80;99.90;;;;;;5069465;28;20526;-81
2022/09/22 04:39:33;;;;;;;3.37;3.07;;;10.80;99.90;;;;;;5060841;28;20436;-81
2022/09/22 04:42:01;;;;;;;3.90;3.20;;;10.70;99.90;;;;;;5058391;28;20510;-81
2022/09/22 04:44:28;;;;;;;4.13;3.17;;;10.70;99.90;;;;;;5056486;28;20444;-82
2022/09/22 04:47:00;;;;;;;3.73;3.43;;;10.60;99.90;;;;;;5062592;28;20559;-81
2022/09/22 04:49:27;;;;;;;3.93;2.97;;;10.60;99.90;;;;;;5059680;28;20549;-83
2022/09/22 04:51:53;;;;;;;4.60;3.10;;;10.60;99.90;;;;;;5060878;28;20543;-82
2022/09/22 04:54:20;;;;;;;3.13;2.83;;;10.60;99.90;;;;;;5056197;28;20935;-82
2022/09/22 04:56:47;;;;;;;2.97;2.70;;;10.60;99.90;;;;;;5076955;28;20444;-80
2022/09/22 04:59:14;;;;;;;3.37;3.07;;;10.50;99.90;;;;;;5077254;28;20508;-82
2022/09/22 05:01:40;;;;;;;4.03;3.10;;;10.60;99.90;;;;;;5075829;28;20451;-82
2022/09/22 05:04:08;;;;;;;3.10;2.70;;;10.60;99.90;;;;;;5069505;28;20969;-83
2022/09/22 05:06:35;;;;;;;4.07;3.20;;;10.60;99.90;;;;;;5061127;28;20447;-82
2022/09/22 05:09:02;;;;;;;5.87;3.03;;;10.50;99.90;;;;;;5060731;28;20483;-83
2022/09/22 05:11:30;;;;;;;4.20;2.90;;;10.60;99.90;;;;;;5055823;28;20473;-82
2022/09/22 05:13:57;;;;;;;3.17;2.87;;;10.60;99.90;;;;;;5059011;28;20585;-82
2022/09/22 05:16:24;;;;;;;3.83;2.93;;;10.50;99.90;;;;;;5058081;28;21059;-81
2022/09/22 05:18:51;;;;;;;4.20;3.10;;;10.50;99.90;;;;;;5059941;28;20919;-82
2022/09/22 05:21:18;;;;;;;3.70;3.03;;;10.50;99.90;;;;;;5055678;28;20481;-82
2022/09/22 05:23:45;;;;;;;3.37;2.60;;;10.40;99.90;;;;;;5063995;28;20525;-80
2022/09/22 05:26:12;;;;;;;3.47;3.10;;;10.40;99.90;;;;;;5061014;28;20930;-82
2022/09/22 05:28:39;;;;;;;3.63;3.17;;;10.40;99.90;;;;;;5060363;28;20479;-82
2022/09/22 05:31:07;;;;;;;3.40;2.87;;;10.40;99.90;;;;;;5050841;28;20493;-83
2022/09/22 05:33:33;;;;;;;6.30;3.67;;;10.40;99.90;;;;;;5059894;28;20510;-83
2022/09/22 05:36:00;;;;;;;5.13;3.20;;;10.40;99.90;;;;;;5060335;28;20452;-82
2022/09/22 05:38:27;;;;;;;3.83;3.30;;;10.40;99.90;;;;;;5059112;28;20457;-82
2022/09/22 05:40:54;;;;;;;6.43;3.20;;;10.40;99.90;;;;;;5055415;28;20452;-81
2022/09/22 05:43:21;;;;;;;5.57;3.53;;;10.40;99.90;;;;;;5057449;28;21171;-82
2022/09/22 05:45:48;;;;;;;5.87;3.47;;;10.40;99.90;;;;;;5058680;28;20486;-82
2022/09/22 05:48:15;;;;;;;4.90;3.60;;;10.40;99.90;;;;;;5055728;28;20543;-81
2022/09/22 05:50:43;;;;;;;3.80;3.00;;;10.40;99.90;;;;;;5054332;28;20445;-80
2022/09/22 05:53:11;;;;;;;5.93;3.07;;;10.40;99.90;;;;;;5056064;28;20936;-80
2022/09/22 05:55:39;;;;;;;4.80;3.93;;;10.40;99.90;;;;;;5092505;28;20456;-83
2022/09/22 05:58:08;;;;;;;6.07;3.90;;;10.30;99.90;;;;;;5050404;28;20429;-83
2022/09/22 06:00:35;;;;;;;5.20;3.17;;;10.40;99.90;;;;;;5057284;28;20448;-84
2022/09/22 06:03:02;;;;;;;3.97;3.23;;;10.40;99.90;;;;;;5059094;28;20468;-83
2022/09/22 06:05:29;;;;;;;4.57;3.40;;;10.70;99.90;;;;;;5059474;28;20440;-83
2022/09/22 06:08:02;;;;;;;5.97;3.30;;;11.50;99.90;;;;;;5058957;28;20448;-83
2022/09/22 06:10:30;;;;;;;8.30;3.60;;;11.50;99.60;;;;;;5059214;28;20455;-83
2022/09/22 06:13:05;;;;;;;4.20;2.80;;;11.20;99.70;;;;;;5059801;28;20479;-82
2022/09/22 06:15:32;;;;;;;6.83;3.63;;;10.90;99.90;;;;;;5055030;28;20445;-83
2022/09/22 06:18:00;;;;;;;3.47;3.00;;;10.80;99.90;;;;;;5072333;28;20445;-83
2022/09/22 06:20:28;;;;;;;3.53;3.23;;;10.70;99.90;;;;;;5074896;28;20528;-83
2022/09/22 06:22:55;;;;;;;3.20;2.90;;;10.70;99.90;;;;;;5059031;28;20476;-84
2022/09/22 06:25:22;;;;;;;3.20;2.90;;;10.60;99.90;;;;;;5053720;28;20453;-81
2022/09/22 06:28:06;;;;;;;4.97;3.30;;;10.80;99.90;;;;;;5062374;28;20506;-80
2022/09/22 06:30:34;;;;;;;3.60;2.43;;;11.00;99.90;;;;;;5062197;28;20444;-82
2022/09/22 06:33:01;;;;;;;6.27;3.70;;;10.90;99.90;;;;;;5059542;28;20475;-81
2022/09/22 06:35:34;;;;;;;3.43;3.13;;;10.90;99.90;;;;;;5062512;28;20455;-81
2022/09/22 06:38:01;;;;;;;4.67;3.60;;;10.90;99.90;;;;;;5076195;28;20425;-82
2022/09/22 06:40:28;;;;;;;4.53;3.30;;;10.70;99.90;;;;;;5069180;28;20437;-83
2022/09/22 06:43:03;;;;;;;6.00;3.40;;;10.80;99.90;;;;;;5060332;28;20500;-83
2022/09/22 06:45:32;;;;;;;4.03;3.40;;;10.90;99.90;;;;;;5057617;28;20497;-84
2022/09/22 06:47:59;;;;;;;5.13;3.40;;;11.00;99.90;;;;;;5058247;28;20506;-83
2022/09/22 06:50:31;;;;;;;3.50;2.97;;;11.10;99.90;;;;;;5059756;28;20491;-83
2022/09/22 06:53:03;;;;;;;2.80;2.60;;;11.20;99.90;;;;;;5052460;28;20495;-83
2022/09/22 06:55:30;;;;;;;4.83;3.60;;;11.20;99.90;;;;;;5059855;28;21047;-83
2022/09/22 06:57:59;;;;;;;2.80;2.43;;;11.20;99.90;;;;;;5058876;28;20496;-83
2022/09/22 07:00:31;;;;;;;4.80;3.00;;;11.20;99.90;;;;;;5070002;28;20459;-82
2022/09/22 07:03:21;;;;;;;7.23;3.40;;;11.20;99.90;;;;;;5071539;28;20551;-82
2022/09/22 07:06:00;;;;;;;3.50;3.20;;;11.20;99.90;;;;;;5067573;28;20436;-82
2022/09/22 07:08:29;;;;;;;3.97;3.07;;;11.60;99.90;;;;;;5082693;28;20473;-83
2022/09/22 07:10:58;;;;;;;3.30;2.80;;;13.80;99.90;;;;;;5066898;28;20432;-83
2022/09/22 07:13:28;;;;;;;4.10;3.10;;;16.20;93.80;;;;;;5070080;28;20451;-83
2022/09/22 07:16:00;;;;;;;3.23;2.47;;;18.70;88.00;;;;;;5069956;28;20444;-83
2022/09/22 07:18:31;;;;;;;3.30;2.97;;;20.30;75.70;;;;;;5066791;28;20486;-82
2022/09/22 07:21:07;;;;;;;4.53;2.97;;;21.10;70.30;;;;;;5062157;28;20993;-82
2022/09/22 07:23:35;;;;;;;6.20;3.37;;;22.00;66.70;;;;;;5060187;28;20455;-82
2022/09/22 07:26:06;;;;;;;3.73;2.53;;;22.80;62.20;;;;;;5056304;28;20452;-82
2022/09/22 07:28:35;;;;;;;4.80;2.80;;;23.40;59.40;;;;;;5058726;28;20480;-82
2022/09/22 07:31:07;;;;;;;3.50;3.20;;;23.40;58.30;;;;;;5058918;28;20460;-83
2022/09/22 07:33:46;;;;;;;3.37;2.80;;;23.20;58.30;;;;;;5064378;28;20440;-83
2022/09/22 07:36:26;;;;;;;3.00;2.70;;;23.70;56.80;;;;;;5060089;28;20528;-84
2022/09/22 07:39:06;;;;;;;5.47;3.20;;;24.20;55.40;;;;;;5059187;28;20455;-82
2022/09/22 07:41:51;;;;;;;3.30;2.83;;;23.60;55.20;;;;;;5055664;28;20487;-83
2022/09/22 07:48:34;;;;;;;3.83;2.60;;;25.10;53.00;;;;;;5056733;28;20535;-83
2022/09/22 07:50:03;;;;;;;5.03;2.60;;;24.50;52.90;;;;;;5057237;28;20519;-81
2022/09/22 07:52:47;;;;;;;5.70;3.33;;;25.20;51.50;;;;;;5053693;28;20508;-82
2022/09/22 07:55:20;;;;;;;3.93;3.53;;;24.70;52.00;;;;;;5065820;28;20459;-83
2022/09/22 07:58:07;;;;;;;3.20;2.90;;;23.00;53.70;;;;;;5055402;28;20454;-83
2022/09/22 08:00:45;;;;;;;6.23;4.60;;;20.80;56.80;;;;;;5055009;28;20456;-82
2022/09/22 08:03:12;;;;;;;3.87;3.47;;;18.70;64.00;;;;;;5056113;28;20482;-83
2022/09/22 08:05:52;;;;;;;4.27;3.43;;;17.50;70.90;;;;;;5058058;28;20460;-84
2022/09/22 08:08:22;;;;;;;4.20;3.60;;;16.70;76.40;;;;;;5052768;28;20487;-82
2022/09/22 08:10:51;;;;;;;4.93;3.30;;;16.00;81.60;;;;;;5070617;28;20448;-83
2022/09/22 08:13:23;;;;;;;5.07;3.13;;;15.60;85.70;;;;;;5057176;28;20795;-83
2022/09/22 08:15:55;;;;;;;3.20;2.70;;;15.30;88.50;;;;;;5057143;28;20867;-83
2022/09/22 08:18:36;;;;;;;3.63;2.87;;;15.10;89.70;;;;;;5054649;28;20546;-82
2022/09/22 08:21:18;;;;;;;5.47;3.77;;;14.90;90.60;;;;;;5059822;28;20468;-83
2022/09/22 08:24:03;;;;;;;4.10;3.70;;;14.90;91.10;;;;;;5061781;28;20886;-83
2022/09/22 08:26:35;;;;;;;5.73;3.37;;;14.80;91.50;;;;;;5059027;28;20524;-81
2022/09/22 08:29:06;;;;;;;6.43;3.60;;;14.90;91.80;;;;;;5051972;28;20495;-83
2022/09/22 08:31:37;;;;;;;3.43;3.00;;;14.80;91.40;;;;;;5073110;28;20568;-83
2022/09/22 08:34:11;;;;;;;2.60;2.40;;;14.70;91.90;;;;;;5057947;28;20835;-83
2022/09/22 08:36:47;;;;;;;3.37;3.00;;;14.70;91.90;;;;;;5069245;28;20555;-83
2022/09/22 08:39:18;;;;;;;3.10;2.80;;;14.60;92.10;;;;;;5071041;28;20436;-83
2022/09/22 08:42:08;;;;;;;3.33;2.40;;;14.60;92.40;;;;;;5056459;28;20499;-82
2022/09/22 08:45:01;;;;;;;4.30;2.40;;;14.70;92.30;;;;;;5066150;28;20457;-83
2022/09/22 08:53:22;;;;;;;3.90;2.17;;;14.80;91.80;;;;;;5054699;28;20460;-82
2022/09/22 08:56:04;;;;;;;2.60;2.40;;;14.80;92.20;;;;;;5051558;28;20455;-83
2022/09/22 08:58:49;;;;;;;4.73;2.40;;;14.80;91.80;;;;;;5059609;28;20827;-84
2022/09/22 09:01:38;;;;;;;3.40;2.57;;;14.70;92.00;;;;;;5079504;28;20485;-83
2022/09/22 09:04:14;;;;;;;2.57;2.20;;;14.60;92.50;;;;;;5070639;28;20440;-84
2022/09/22 09:07:02;;;;;;;4.37;2.43;;;14.90;92.10;;;;;;5076358;28;20480;-82
2022/09/22 09:09:41;;;;;;;4.40;2.50;;;15.00;91.70;;;;;;5062668;28;20483;-84
2022/09/22 09:12:33;;;;;;;2.70;2.10;;;15.10;91.70;;;;;;5073861;28;20457;-83
2022/09/22 09:15:03;;;;;;;2.53;2.33;;;15.30;91.10;;;;;;5074771;28;20456;-84
2022/09/22 09:17:34;;;;;;;2.43;2.23;;;15.50;90.80;;;;;;5062943;28;20506;-83
2022/09/22 09:20:15;;;;;;;2.07;1.80;;;15.50;90.80;;;;;;5059682;28;20567;-84
2022/09/22 09:22:54;;;;;;;4.03;2.60;;;15.60;90.40;;;;;;5068151;28;20468;-84
2022/09/22 09:25:30;;;;;;;2.00;1.90;;;15.70;90.50;;;;;;5059961;28;20448;-82
2022/09/22 09:28:03;;;;;;;5.40;2.67;;;15.70;90.50;;;;;;5055360;28;20467;-81
2022/09/22 09:30:42;;;;;;;2.83;1.83;;;15.70;89.50;;;;;;5062442;28;20480;-81
2022/09/22 09:33:25;;;;;;;9.03;6.40;;;15.70;89.90;;;;;;5067048;28;20467;-81
2022/09/22 09:35:52;;;;;;;1.93;1.80;;;16.00;88.70;;;;;;5077140;28;20958;-83
2022/09/22 09:38:29;;;;;;;2.00;1.80;;;16.10;88.50;;;;;;5061561;28;20444;-83
2022/09/22 09:41:13;;;;;;;3.60;1.93;;;16.20;86.80;;;;;;5064376;28;20449;-83
2022/09/22 09:43:44;;;;;;;2.33;2.13;;;16.40;87.40;;;;;;5068313;28;20532;-82
2022/09/22 09:46:25;;;;;;;6.27;2.63;;;18.50;81.00;;;;;;5065087;28;20455;-83
2022/09/22 09:49:09;;;;;;;2.37;2.13;;;20.20;72.20;;;;;;5082491;28;20444;-84
2022/09/22 09:51:38;;;;;;;3.83;2.30;;;21.50;65.30;;;;;;5062155;28;20530;-83
2022/09/22 09:54:08;;;;;;;3.53;2.27;;;22.80;59.10;;;;;;5056799;28;20472;-83
2022/09/22 09:57:02;;;;;;;2.50;2.03;;;23.30;57.40;;;;;;5065343;28;20508;-82
2022/09/22 10:02:20;;;;;;;2.87;1.63;;;24.20;53.40;;;;;;5057475;28;20534;-84
2022/09/22 10:04:51;;;;;;;2.10;1.73;;;24.00;52.80;;;;;;5076188;28;20535;-84
2022/09/22 10:07:26;;;;;;;2.33;1.23;;;24.30;52.10;;;;;;5057050;28;20441;-84
2022/09/22 10:10:17;;;;;;;3.47;1.93;;;24.30;52.00;;;;;;5065769;28;21036;-83
2022/09/22 10:12:50;;;;;;;2.13;2.00;;;24.60;50.60;;;;;;5075604;28;20480;-82
2022/09/22 10:15:32;;;;;;;2.50;2.30;;;24.40;51.00;;;;;;5059989;28;20498;-82
2022/09/22 10:18:25;;;;;;;4.80;1.73;;;24.50;50.80;;;;;;5076220;28;20460;-82
2022/09/22 10:21:20;;;;;;;2.03;1.83;;;24.50;50.50;;;;;;5071556;28;20433;-82
2022/09/22 10:28:14;;;;;;;1.90;1.70;;;23.40;51.10;;;;;;5048790;28;20799;-84
2022/09/22 10:31:05;;;;;;;3.67;2.53;;;21.70;54.20;;;;;;5057458;28;20499;-83
2022/09/22 10:33:57;;;;;;;1.37;1.10;;;22.00;54.80;;;;;;5057126;28;20452;-83
2022/09/22 10:36:33;;;;;;;1.97;1.63;;;22.80;52.40;;;;;;5056551;28;20459;-83
2022/09/22 10:39:26;;;;;;;1.60;1.43;;;23.30;51.00;;;;;;5055802;28;20504;-82
2022/09/22 10:42:06;;;;;;;2.00;1.80;;;23.30;50.50;;;;;;5059143;28;20475;-83
2022/09/22 10:45:12;;;;;;;1.90;1.80;;;23.60;49.00;;;;;;5053403;28;20445;-82
2022/09/22 10:48:06;;;;;;;1.50;1.40;;;23.70;48.80;;;;;;5047118;28;20559;-82
2022/09/22 10:51:36;;;;;;;2.30;1.60;;;24.10;47.40;;;;;;5070728;28;20480;-83
2022/09/22 10:55:00;;;;;;;1.47;1.03;;;23.20;48.30;;;;;;5056175;28;21064;-83
2022/09/22 10:57:56;;;;;;;1.67;1.33;;;24.20;46.90;;;;;;5065002;28;20451;-83
2022/09/22 11:01:13;;;;;;;2.40;1.63;;;24.20;46.70;;;;;;5050137;28;20448;-83
2022/09/22 11:04:07;;;;;;;1.67;1.57;;;24.00;47.50;;;;;;4995215;28;20445;-83
2022/09/22 11:13:34;;;;;;;1.40;1.30;;;24.60;43.60;;;;;;5032115;28;20488;-83
2022/09/22 11:16:33;;;;;;;2.70;1.30;;;24.90;42.20;;;;;;5056802;28;21256;-83
2022/09/22 11:19:33;;;;;;;1.70;1.43;;;24.30;43.20;;;;;;5059447;28;20484;-82
2022/09/22 11:22:31;;;;;;;1.57;1.47;;;24.20;43.80;;;;;;5076173;28;20556;-82
2022/09/22 11:25:20;;;;;;;1.27;1.17;;;23.70;44.00;;;;;;5070952;28;20460;-83
2022/09/22 11:28:02;;;;;;;1.30;1.20;;;24.00;44.90;;;;;;5069658;28;20484;-83
2022/09/22 11:31:02;;;;;;;1.10;1.00;;;24.50;42.60;;;;;;5065795;28;20487;-82
2022/09/22 11:34:22;;;;;;;1.23;1.13;;;24.10;42.70;;;;;;5057422;28;20445;-82
2022/09/22 11:37:27;;;;;;;2.30;1.40;;;23.70;43.30;;;;;;5022735;28;20487;-81
2022/09/22 11:40:18;;;;;;;1.40;1.30;;;23.80;42.70;;;;;;5069131;28;20460;-84
2022/09/22 11:43:01;;;;;;;1.43;1.33;;;23.00;44.50;;;;;;5061211;28;20468;-83
2022/09/22 11:45:55;;;;;;;1.47;1.37;;;23.90;44.40;;;;;;5059159;28;20452;-82
2022/09/22 11:49:06;;;;;;;3.80;1.40;;;24.20;43.60;;;;;;5059235;28;20475;-83
2022/09/22 11:52:12;;;;;;;1.20;1.10;;;24.40;42.10;;;;;;5062818;28;20456;-83
2022/09/22 11:55:16;;;;;;;1.77;1.20;;;24.30;41.30;;;;;;5066438;28;20476;-83
2022/09/22 11:58:02;;;;;;;1.40;1.30;;;24.20;41.00;;;;;;5067965;28;20445;-83
2022/09/22 12:00:56;;;;;;;1.20;0.87;;;24.30;41.50;;;;;;5053574;28;20440;-83
2022/09/22 12:03:49;;;;;;;1.10;1.10;;;24.50;41.00;;;;;;5052909;28;20456;-82
2022/09/22 12:06:36;;;;;;;1.83;1.53;;;24.50;39.60;;;;;;5055036;28;20436;-82
2022/09/22 12:09:36;;;;;;;1.73;0.90;;;24.30;40.10;;;;;;5045959;28;20585;-86
2022/09/22 12:12:55;;;;;;;1.20;1.07;;;24.20;40.50;;;;;;5059429;28;20457;-83
2022/09/22 12:15:52;;;;;;;1.00;0.83;;;23.80;40.80;;;;;;5062583;28;20439;-83
2022/09/22 12:18:56;;;;;;;0.90;0.90;;;24.10;40.20;;;;;;5059800;28;20444;-84
2022/09/22 12:21:52;;;;;;;1.00;1.00;;;24.20;40.70;;;;;;5060355;28;20486;-84
2022/09/22 12:24:27;;;;;;;1.97;1.70;;;24.60;39.60;;;;;;5062957;28;20449;-82
2022/09/22 12:27:32;;;;;;;0.80;0.80;;;24.30;39.50;;;;;;5063110;28;20475;-81
2022/09/22 12:30:21;;;;;;;1.20;1.10;;;23.90;39.50;;;;;;5054388;28;20488;-83
2022/09/22 12:33:16;;;;;;;0.93;0.93;;;23.60;39.60;;;;;;5081515;28;20529;-83
2022/09/22 12:36:11;;;;;;;1.17;1.00;;;23.10;40.20;;;;;;5065562;28;20502;-83
2022/09/22 12:39:31;;;;;;;1.10;1.00;;;23.90;39.30;;;;;;5080748;28;20403;-83
2022/09/22 12:42:26;;;;;;;0.70;0.70;;;24.30;38.80;;;;;;5083488;28;20517;-81
2022/09/22 12:45:32;;;;;;;1.10;1.00;;;23.80;39.10;;;;;;5075112;28;20544;-83
2022/09/22 12:48:34;;;;;;;1.20;1.10;;;24.30;39.10;;;;;;5057198;28;20533;-84
2022/09/22 12:51:32;;;;;;;0.80;0.80;;;23.80;38.50;;;;;;5061809;28;20480;-83
2022/09/22 12:54:33;;;;;;;1.07;0.90;;;24.20;38.60;;;;;;5061764;28;20456;-83
2022/09/22 12:57:28;;;;;;;1.53;1.10;;;24.10;38.40;;;;;;5060736;28;20542;-81
2022/09/22 13:00:50;;;;;;;0.90;0.87;;;24.20;38.90;;;;;;5054589;28;20428;-82
2022/09/22 13:03:36;;;;;;;0.90;0.90;;;24.30;39.30;;;;;;5062489;28;20478;-83
2022/09/22 13:06:44;;;;;;;1.13;1.00;;;24.20;38.80;;;;;;5076827;28;20797;-83
2022/09/22 13:09:31;;;;;;;0.90;0.90;;;23.70;38.70;;;;;;5043685;28;20448;-84
2022/09/22 13:12:25;;;;;;;1.20;0.70;;;24.20;38.20;;;;;;5058680;28;20468;-82
2022/09/22 13:15:22;;;;;;;1.33;0.90;;;24.40;37.10;;;;;;5058346;28;20468;-83
2022/09/22 13:18:33;;;;;;;2.27;1.17;;;24.40;36.80;;;;;;5073526;28;20605;-83
2022/09/22 13:21:17;;;;;;;1.47;0.90;;;24.20;36.90;;;;;;5052007;28;20576;-83
2022/09/22 13:28:20;;;;;;;1.00;0.80;;;24.00;37.90;;;;;;5036348;28;20452;-83
2022/09/22 13:31:20;;;;;;;1.10;1.00;;;23.40;38.50;;;;;;5059012;28;20570;-83
2022/09/22 13:33:52;;;;;;;1.20;1.10;;;23.70;40.20;;;;;;5059887;28;20457;-82
2022/09/22 13:36:43;;;;;;;0.80;0.60;;;24.30;40.20;;;;;;5057655;28;21239;-82
2022/09/22 13:39:40;;;;;;;1.57;1.00;;;24.50;37.00;;;;;;5059223;28;20445;-84
2022/09/22 13:42:31;;;;;;;1.10;1.00;;;24.20;37.30;;;;;;5065547;22;20549;-83
2022/09/22 13:45:25;;;;;;;0.83;0.80;;;24.50;37.50;;;;;;5052254;28;20468;-84
2022/09/22 13:48:12;;;;;;;2.13;0.90;;;24.30;37.60;;;;;;5058885;28;20492;-84
2022/09/22 13:51:18;;;;;;;1.30;1.20;;;24.30;37.70;;;;;;5049348;28;20464;-83
2022/09/22 13:53:58;;;;;;;2.40;1.27;;;24.50;36.90;;;;;;5034181;28;20446;-83
2022/09/22 13:56:29;;;;;;;1.30;1.20;;;24.40;37.50;;;;;;5026050;28;20476;-84
2022/09/22 13:59:31;;;;;;;1.43;1.07;;;24.30;38.30;;;;;;5025172;28;20461;-83
2022/09/22 14:02:34;;;;;;;2.83;1.40;;;24.20;38.70;;;;;;5024431;28;20500;-82
2022/09/22 14:05:41;;;;;;;1.43;1.27;;;23.70;39.90;;;;;;5022143;28;20442;-83
2022/09/22 14:08:43;;;;;;;0.90;0.90;;;24.00;40.30;;;;;;5033892;28;20446;-84
2022/09/22 14:11:37;;;;;;;1.43;0.90;;;24.20;38.80;;;;;;5018787;28;20485;-84